sensor_id;sensor_type;location;lat;lon;timestamp;P1;durP1;ratioP1;P2;durP2;ratioP2
36355;SDS011;22384;54.302;18.596;2023-07-08T00:00:53;3.83;;;1.70;;
36355;SDS011;22384;54.302;18.596;2023-07-08T00:03:19;2.33;;;1.30;;
36355;SDS011;22384;54.302;18.596;2023-07-08T00:05:46;2.67;;;1.60;;
36355;SDS011;22384;54.302;18.596;2023-07-08T00:08:17;3.50;;;1.60;;
36355;SDS011;22384;54.302;18.596;2023-07-08T00:10:43;2.38;;;1.42;;
36355;SDS011;22384;54.302;18.596;2023-07-08T00:13:09;2.83;;;1.52;;
36355;SDS011;22384;54.302;18.596;2023-07-08T00:15:36;3.92;;;1.35;;
36355;SDS011;22384;54.302;18.596;2023-07-08T00:18:12;1.83;;;1.20;;
36355;SDS011;22384;54.302;18.596;2023-07-08T00:20:39;2.05;;;1.10;;
36355;SDS011;22384;54.302;18.596;2023-07-08T00:23:07;6.97;;;1.42;;
36355;SDS011;22384;54.302;18.596;2023-07-08T00:25:33;2.15;;;1.10;;
36355;SDS011;22384;54.302;18.596;2023-07-08T00:27:59;2.85;;;1.45;;
36355;SDS011;22384;54.302;18.596;2023-07-08T00:30:27;2.25;;;1.52;;
36355;SDS011;22384;54.302;18.596;2023-07-08T00:32:54;2.35;;;1.40;;
36355;SDS011;22384;54.302;18.596;2023-07-08T00:35:26;3.58;;;1.50;;
36355;SDS011;22384;54.302;18.596;2023-07-08T00:37:54;1.77;;;1.45;;
36355;SDS011;22384;54.302;18.596;2023-07-08T00:40:26;5.10;;;1.80;;
36355;SDS011;22384;54.302;18.596;2023-07-08T00:42:52;2.28;;;1.08;;
36355;SDS011;22384;54.302;18.596;2023-07-08T00:45:29;5.10;;;1.65;;
36355;SDS011;22384;54.302;18.596;2023-07-08T00:47:57;4.15;;;1.38;;
36355;SDS011;22384;54.302;18.596;2023-07-08T00:50:25;7.75;;;1.90;;
36355;SDS011;22384;54.302;18.596;2023-07-08T00:53:15;3.03;;;1.67;;
36355;SDS011;22384;54.302;18.596;2023-07-08T00:55:37;1.30;;;1.20;;
36355;SDS011;22384;54.302;18.596;2023-07-08T00:58:03;2.33;;;1.20;;
36355;SDS011;22384;54.302;18.596;2023-07-08T01:00:29;2.50;;;1.30;;
36355;SDS011;22384;54.302;18.596;2023-07-08T01:02:55;2.72;;;1.17;;
36355;SDS011;22384;54.302;18.596;2023-07-08T01:05:24;4.15;;;1.23;;
36355;SDS011;22384;54.302;18.596;2023-07-08T01:07:52;2.20;;;1.02;;
36355;SDS011;22384;54.302;18.596;2023-07-08T01:10:22;3.13;;;1.15;;
36355;SDS011;22384;54.302;18.596;2023-07-08T01:12:49;3.53;;;1.15;;
36355;SDS011;22384;54.302;18.596;2023-07-08T01:15:17;1.85;;;1.00;;
36355;SDS011;22384;54.302;18.596;2023-07-08T01:17:43;1.75;;;1.00;;
36355;SDS011;22384;54.302;18.596;2023-07-08T01:20:10;0.82;;;0.82;;
36355;SDS011;22384;54.302;18.596;2023-07-08T01:22:40;3.38;;;1.00;;
36355;SDS011;22384;54.302;18.596;2023-07-08T01:25:06;2.05;;;0.93;;
36355;SDS011;22384;54.302;18.596;2023-07-08T01:27:34;5.50;;;1.00;;
36355;SDS011;22384;54.302;18.596;2023-07-08T01:30:02;2.92;;;0.80;;
36355;SDS011;22384;54.302;18.596;2023-07-08T01:32:28;6.50;;;1.00;;
36355;SDS011;22384;54.302;18.596;2023-07-08T01:34:58;3.15;;;1.02;;
36355;SDS011;22384;54.302;18.596;2023-07-08T01:40:34;1.30;;;0.98;;
36355;SDS011;22384;54.302;18.596;2023-07-08T01:43:01;0.85;;;0.82;;
36355;SDS011;22384;54.302;18.596;2023-07-08T01:45:28;3.72;;;1.10;;
36355;SDS011;22384;54.302;18.596;2023-07-08T01:48:06;1.95;;;1.13;;
36355;SDS011;22384;54.302;18.596;2023-07-08T01:50:34;1.85;;;0.90;;
36355;SDS011;22384;54.302;18.596;2023-07-08T01:53:01;4.60;;;0.98;;
36355;SDS011;22384;54.302;18.596;2023-07-08T01:55:28;2.45;;;0.80;;
36355;SDS011;22384;54.302;18.596;2023-07-08T01:57:55;1.40;;;0.95;;
36355;SDS011;22384;54.302;18.596;2023-07-08T02:00:21;2.28;;;0.90;;
36355;SDS011;22384;54.302;18.596;2023-07-08T02:02:48;1.88;;;1.10;;
36355;SDS011;22384;54.302;18.596;2023-07-08T02:05:14;2.47;;;1.10;;
36355;SDS011;22384;54.302;18.596;2023-07-08T02:07:40;1.40;;;1.00;;
36355;SDS011;22384;54.302;18.596;2023-07-08T02:10:07;3.65;;;1.10;;
36355;SDS011;22384;54.302;18.596;2023-07-08T02:12:33;4.72;;;0.98;;
36355;SDS011;22384;54.302;18.596;2023-07-08T02:14:59;2.38;;;1.00;;
36355;SDS011;22384;54.302;18.596;2023-07-08T02:17:26;4.40;;;1.05;;
36355;SDS011;22384;54.302;18.596;2023-07-08T02:19:54;3.35;;;1.10;;
36355;SDS011;22384;54.302;18.596;2023-07-08T02:22:20;2.15;;;0.93;;
36355;SDS011;22384;54.302;18.596;2023-07-08T02:24:46;2.03;;;1.63;;
36355;SDS011;22384;54.302;18.596;2023-07-08T02:27:13;2.33;;;1.10;;
36355;SDS011;22384;54.302;18.596;2023-07-08T02:29:39;6.28;;;1.30;;
36355;SDS011;22384;54.302;18.596;2023-07-08T02:32:05;2.97;;;1.02;;
36355;SDS011;22384;54.302;18.596;2023-07-08T02:34:31;1.20;;;0.90;;
36355;SDS011;22384;54.302;18.596;2023-07-08T02:36:57;2.15;;;1.25;;
36355;SDS011;22384;54.302;18.596;2023-07-08T02:39:23;1.42;;;0.90;;
36355;SDS011;22384;54.302;18.596;2023-07-08T02:41:49;1.70;;;1.02;;
36355;SDS011;22384;54.302;18.596;2023-07-08T02:44:15;1.00;;;0.90;;
36355;SDS011;22384;54.302;18.596;2023-07-08T02:46:41;2.97;;;1.00;;
36355;SDS011;22384;54.302;18.596;2023-07-08T02:49:07;2.92;;;1.20;;
36355;SDS011;22384;54.302;18.596;2023-07-08T02:51:33;1.85;;;1.63;;
36355;SDS011;22384;54.302;18.596;2023-07-08T02:53:59;1.60;;;1.10;;
36355;SDS011;22384;54.302;18.596;2023-07-08T02:56:25;2.00;;;1.20;;
36355;SDS011;22384;54.302;18.596;2023-07-08T02:58:51;2.38;;;1.33;;
36355;SDS011;22384;54.302;18.596;2023-07-08T03:01:17;1.83;;;1.40;;
36355;SDS011;22384;54.302;18.596;2023-07-08T03:03:44;1.83;;;1.13;;
36355;SDS011;22384;54.302;18.596;2023-07-08T03:06:10;1.17;;;1.05;;
36355;SDS011;22384;54.302;18.596;2023-07-08T03:08:36;2.15;;;1.40;;
36355;SDS011;22384;54.302;18.596;2023-07-08T03:11:03;5.53;;;1.45;;
36355;SDS011;22384;54.302;18.596;2023-07-08T03:13:29;2.42;;;1.30;;
36355;SDS011;22384;54.302;18.596;2023-07-08T03:15:56;2.83;;;1.30;;
36355;SDS011;22384;54.302;18.596;2023-07-08T03:18:24;1.83;;;1.10;;
36355;SDS011;22384;54.302;18.596;2023-07-08T03:20:51;3.78;;;1.70;;
36355;SDS011;22384;54.302;18.596;2023-07-08T03:23:18;4.13;;;1.38;;
36355;SDS011;22384;54.302;18.596;2023-07-08T03:25:44;3.20;;;1.20;;
36355;SDS011;22384;54.302;18.596;2023-07-08T03:28:10;2.58;;;1.23;;
36355;SDS011;22384;54.302;18.596;2023-07-08T03:30:40;4.22;;;1.40;;
36355;SDS011;22384;54.302;18.596;2023-07-08T03:33:06;6.47;;;1.75;;
36355;SDS011;22384;54.302;18.596;2023-07-08T03:35:32;2.45;;;1.33;;
36355;SDS011;22384;54.302;18.596;2023-07-08T03:37:58;2.90;;;1.35;;
36355;SDS011;22384;54.302;18.596;2023-07-08T03:40:24;3.28;;;1.40;;
36355;SDS011;22384;54.302;18.596;2023-07-08T03:42:50;6.15;;;1.50;;
36355;SDS011;22384;54.302;18.596;2023-07-08T03:45:16;3.72;;;1.30;;
36355;SDS011;22384;54.302;18.596;2023-07-08T03:47:42;3.85;;;1.55;;
36355;SDS011;22384;54.302;18.596;2023-07-08T03:50:16;4.63;;;1.40;;
36355;SDS011;22384;54.302;18.596;2023-07-08T03:52:43;7.68;;;1.40;;
36355;SDS011;22384;54.302;18.596;2023-07-08T03:55:10;6.32;;;1.60;;
36355;SDS011;22384;54.302;18.596;2023-07-08T03:57:37;3.50;;;1.60;;
36355;SDS011;22384;54.302;18.596;2023-07-08T04:00:03;4.15;;;1.30;;
36355;SDS011;22384;54.302;18.596;2023-07-08T04:02:29;2.40;;;1.20;;
36355;SDS011;22384;54.302;18.596;2023-07-08T04:04:55;4.28;;;1.40;;
36355;SDS011;22384;54.302;18.596;2023-07-08T04:07:21;2.97;;;1.30;;
36355;SDS011;22384;54.302;18.596;2023-07-08T04:09:47;1.67;;;1.20;;
36355;SDS011;22384;54.302;18.596;2023-07-08T04:12:15;2.45;;;1.33;;
36355;SDS011;22384;54.302;18.596;2023-07-08T04:14:41;4.65;;;1.75;;
36355;SDS011;22384;54.302;18.596;2023-07-08T04:17:08;2.92;;;1.40;;
36355;SDS011;22384;54.302;18.596;2023-07-08T04:19:34;2.88;;;1.35;;
36355;SDS011;22384;54.302;18.596;2023-07-08T04:22:01;6.85;;;1.92;;
36355;SDS011;22384;54.302;18.596;2023-07-08T04:24:27;3.10;;;1.67;;
36355;SDS011;22384;54.302;18.596;2023-07-08T04:26:53;4.18;;;1.52;;
36355;SDS011;22384;54.302;18.596;2023-07-08T04:29:20;5.32;;;1.70;;
36355;SDS011;22384;54.302;18.596;2023-07-08T04:31:47;2.85;;;1.80;;
36355;SDS011;22384;54.302;18.596;2023-07-08T04:34:13;6.07;;;1.88;;
36355;SDS011;22384;54.302;18.596;2023-07-08T04:36:40;3.53;;;1.55;;
36355;SDS011;22384;54.302;18.596;2023-07-08T04:39:06;3.67;;;2.10;;
36355;SDS011;22384;54.302;18.596;2023-07-08T04:41:33;4.97;;;2.05;;
36355;SDS011;22384;54.302;18.596;2023-07-08T04:43:59;4.05;;;1.90;;
36355;SDS011;22384;54.302;18.596;2023-07-08T04:49:00;2.42;;;1.63;;
36355;SDS011;22384;54.302;18.596;2023-07-08T04:51:26;3.70;;;1.70;;
36355;SDS011;22384;54.302;18.596;2023-07-08T04:53:52;2.80;;;1.60;;
36355;SDS011;22384;54.302;18.596;2023-07-08T04:56:18;5.97;;;1.90;;
36355;SDS011;22384;54.302;18.596;2023-07-08T04:58:44;4.18;;;1.83;;
36355;SDS011;22384;54.302;18.596;2023-07-08T05:01:10;3.72;;;1.27;;
36355;SDS011;22384;54.302;18.596;2023-07-08T05:03:36;6.22;;;1.63;;
36355;SDS011;22384;54.302;18.596;2023-07-08T05:06:02;4.10;;;1.52;;
36355;SDS011;22384;54.302;18.596;2023-07-08T05:08:28;2.85;;;1.55;;
36355;SDS011;22384;54.302;18.596;2023-07-08T05:10:55;3.53;;;1.98;;
36355;SDS011;22384;54.302;18.596;2023-07-08T05:13:21;2.40;;;1.42;;
36355;SDS011;22384;54.302;18.596;2023-07-08T05:15:48;2.67;;;1.40;;
36355;SDS011;22384;54.302;18.596;2023-07-08T05:18:14;4.45;;;1.92;;
36355;SDS011;22384;54.302;18.596;2023-07-08T05:20:40;2.70;;;1.40;;
36355;SDS011;22384;54.302;18.596;2023-07-08T05:23:08;5.55;;;1.48;;
36355;SDS011;22384;54.302;18.596;2023-07-08T05:25:34;4.75;;;1.60;;
36355;SDS011;22384;54.302;18.596;2023-07-08T05:28:00;2.58;;;1.60;;
36355;SDS011;22384;54.302;18.596;2023-07-08T05:30:27;2.88;;;1.60;;
36355;SDS011;22384;54.302;18.596;2023-07-08T05:32:53;3.53;;;1.80;;
36355;SDS011;22384;54.302;18.596;2023-07-08T05:35:19;3.05;;;1.55;;
36355;SDS011;22384;54.302;18.596;2023-07-08T05:37:45;3.83;;;1.73;;
36355;SDS011;22384;54.302;18.596;2023-07-08T05:40:12;5.28;;;1.50;;
36355;SDS011;22384;54.302;18.596;2023-07-08T05:42:38;3.30;;;1.50;;
36355;SDS011;22384;54.302;18.596;2023-07-08T05:45:04;2.25;;;1.50;;
36355;SDS011;22384;54.302;18.596;2023-07-08T05:47:35;3.42;;;1.70;;
36355;SDS011;22384;54.302;18.596;2023-07-08T05:50:01;5.10;;;1.67;;
36355;SDS011;22384;54.302;18.596;2023-07-08T05:52:27;7.57;;;1.60;;
36355;SDS011;22384;54.302;18.596;2023-07-08T05:54:53;3.80;;;1.50;;
36355;SDS011;22384;54.302;18.596;2023-07-08T05:57:20;5.30;;;1.80;;
36355;SDS011;22384;54.302;18.596;2023-07-08T05:59:46;5.55;;;2.05;;
36355;SDS011;22384;54.302;18.596;2023-07-08T06:02:12;2.47;;;2.20;;
36355;SDS011;22384;54.302;18.596;2023-07-08T06:04:39;7.18;;;1.73;;
36355;SDS011;22384;54.302;18.596;2023-07-08T06:07:05;6.70;;;1.60;;
36355;SDS011;22384;54.302;18.596;2023-07-08T06:09:31;1.98;;;1.50;;
36355;SDS011;22384;54.302;18.596;2023-07-08T06:11:57;2.58;;;1.50;;
36355;SDS011;22384;54.302;18.596;2023-07-08T06:14:23;6.03;;;1.50;;
36355;SDS011;22384;54.302;18.596;2023-07-08T06:16:50;4.78;;;1.42;;
36355;SDS011;22384;54.302;18.596;2023-07-08T06:19:16;5.20;;;1.90;;
36355;SDS011;22384;54.302;18.596;2023-07-08T06:21:42;3.00;;;1.50;;
36355;SDS011;22384;54.302;18.596;2023-07-08T06:24:08;4.85;;;1.40;;
36355;SDS011;22384;54.302;18.596;2023-07-08T06:26:34;6.10;;;1.70;;
36355;SDS011;22384;54.302;18.596;2023-07-08T06:29:01;2.78;;;1.52;;
36355;SDS011;22384;54.302;18.596;2023-07-08T06:31:28;3.25;;;1.40;;
36355;SDS011;22384;54.302;18.596;2023-07-08T06:33:54;2.33;;;1.30;;
36355;SDS011;22384;54.302;18.596;2023-07-08T06:36:20;2.63;;;1.50;;
36355;SDS011;22384;54.302;18.596;2023-07-08T06:38:47;4.18;;;1.33;;
36355;SDS011;22384;54.302;18.596;2023-07-08T06:41:13;3.97;;;1.40;;
36355;SDS011;22384;54.302;18.596;2023-07-08T06:43:39;6.97;;;1.65;;
36355;SDS011;22384;54.302;18.596;2023-07-08T06:46:05;2.78;;;1.50;;
36355;SDS011;22384;54.302;18.596;2023-07-08T06:48:31;2.95;;;1.73;;
36355;SDS011;22384;54.302;18.596;2023-07-08T06:50:58;4.03;;;1.33;;
36355;SDS011;22384;54.302;18.596;2023-07-08T06:53:24;6.10;;;1.40;;
36355;SDS011;22384;54.302;18.596;2023-07-08T06:55:50;3.45;;;1.27;;
36355;SDS011;22384;54.302;18.596;2023-07-08T06:58:16;5.00;;;1.40;;
36355;SDS011;22384;54.302;18.596;2023-07-08T07:00:43;3.40;;;1.42;;
36355;SDS011;22384;54.302;18.596;2023-07-08T07:03:09;3.25;;;1.40;;
36355;SDS011;22384;54.302;18.596;2023-07-08T07:05:35;1.83;;;1.30;;
36355;SDS011;22384;54.302;18.596;2023-07-08T07:08:01;7.55;;;1.92;;
36355;SDS011;22384;54.302;18.596;2023-07-08T07:10:27;2.67;;;1.33;;
36355;SDS011;22384;54.302;18.596;2023-07-08T07:12:53;3.08;;;1.60;;
36355;SDS011;22384;54.302;18.596;2023-07-08T07:15:20;3.50;;;1.48;;
36355;SDS011;22384;54.302;18.596;2023-07-08T07:17:46;2.67;;;1.50;;
36355;SDS011;22384;54.302;18.596;2023-07-08T07:20:12;3.75;;;1.30;;
36355;SDS011;22384;54.302;18.596;2023-07-08T07:22:38;2.90;;;1.40;;
36355;SDS011;22384;54.302;18.596;2023-07-08T07:25:04;2.53;;;1.20;;
36355;SDS011;22384;54.302;18.596;2023-07-08T07:27:30;3.05;;;1.60;;
36355;SDS011;22384;54.302;18.596;2023-07-08T07:29:56;2.92;;;1.77;;
36355;SDS011;22384;54.302;18.596;2023-07-08T07:32:24;5.00;;;1.70;;
36355;SDS011;22384;54.302;18.596;2023-07-08T08:10:04;1.98;;;1.30;;
36355;SDS011;22384;54.302;18.596;2023-07-08T08:42:02;4.53;;;1.60;;
36355;SDS011;22384;54.302;18.596;2023-07-08T08:44:31;5.55;;;1.70;;
36355;SDS011;22384;54.302;18.596;2023-07-08T08:47:00;4.60;;;2.20;;
36355;SDS011;22384;54.302;18.596;2023-07-08T08:49:36;6.70;;;2.33;;
36355;SDS011;22384;54.302;18.596;2023-07-08T08:52:03;5.25;;;2.20;;
36355;SDS011;22384;54.302;18.596;2023-07-08T08:54:30;7.15;;;2.00;;
36355;SDS011;22384;54.302;18.596;2023-07-08T08:57:17;2.15;;;1.50;;
36355;SDS011;22384;54.302;18.596;2023-07-08T09:04:58;6.72;;;2.25;;
36355;SDS011;22384;54.302;18.596;2023-07-08T09:07:27;4.38;;;1.85;;
36355;SDS011;22384;54.302;18.596;2023-07-08T09:12:56;3.47;;;2.10;;
36355;SDS011;22384;54.302;18.596;2023-07-08T09:15:23;5.50;;;1.98;;
36355;SDS011;22384;54.302;18.596;2023-07-08T09:17:51;4.28;;;2.03;;
36355;SDS011;22384;54.302;18.596;2023-07-08T09:20:22;4.03;;;1.92;;
36355;SDS011;22384;54.302;18.596;2023-07-08T09:25:34;7.38;;;1.83;;
36355;SDS011;22384;54.302;18.596;2023-07-08T09:28:01;3.75;;;1.98;;
36355;SDS011;22384;54.302;18.596;2023-07-08T09:30:27;4.13;;;1.90;;
36355;SDS011;22384;54.302;18.596;2023-07-08T09:32:55;4.05;;;2.17;;
36355;SDS011;22384;54.302;18.596;2023-07-08T09:35:23;5.00;;;2.28;;
36355;SDS011;22384;54.302;18.596;2023-07-08T09:37:50;9.20;;;1.90;;
36355;SDS011;22384;54.302;18.596;2023-07-08T09:40:20;6.30;;;1.77;;
36355;SDS011;22384;54.302;18.596;2023-07-08T09:42:48;4.75;;;1.60;;
36355;SDS011;22384;54.302;18.596;2023-07-08T09:45:17;3.10;;;1.75;;
36355;SDS011;22384;54.302;18.596;2023-07-08T09:47:43;3.85;;;1.77;;
36355;SDS011;22384;54.302;18.596;2023-07-08T09:50:31;2.67;;;1.60;;
36355;SDS011;22384;54.302;18.596;2023-07-08T09:52:58;2.80;;;1.50;;
36355;SDS011;22384;54.302;18.596;2023-07-08T09:55:26;1.60;;;1.25;;
36355;SDS011;22384;54.302;18.596;2023-07-08T09:57:53;3.80;;;1.60;;
36355;SDS011;22384;54.302;18.596;2023-07-08T10:00:27;4.28;;;1.85;;
36355;SDS011;22384;54.302;18.596;2023-07-08T10:02:54;8.07;;;1.73;;
36355;SDS011;22384;54.302;18.596;2023-07-08T10:05:35;4.50;;;1.63;;
36355;SDS011;22384;54.302;18.596;2023-07-08T10:08:02;6.25;;;1.70;;
36355;SDS011;22384;54.302;18.596;2023-07-08T10:10:37;3.08;;;1.50;;
36355;SDS011;22384;54.302;18.596;2023-07-08T10:13:04;4.30;;;1.73;;
36355;SDS011;22384;54.302;18.596;2023-07-08T10:15:48;3.85;;;1.60;;
36355;SDS011;22384;54.302;18.596;2023-07-08T10:18:16;4.35;;;1.58;;
36355;SDS011;22384;54.302;18.596;2023-07-08T10:26:22;3.97;;;1.70;;
36355;SDS011;22384;54.302;18.596;2023-07-08T10:34:11;1.58;;;1.40;;
36355;SDS011;22384;54.302;18.596;2023-07-08T10:41:50;4.70;;;2.03;;
36355;SDS011;22384;54.302;18.596;2023-07-08T11:05:00;4.55;;;2.30;;
36355;SDS011;22384;54.302;18.596;2023-07-08T11:07:42;4.32;;;2.30;;
36355;SDS011;22384;54.302;18.596;2023-07-08T11:10:20;9.35;;;2.75;;
36355;SDS011;22384;54.302;18.596;2023-07-08T11:12:54;4.78;;;2.20;;
36355;SDS011;22384;54.302;18.596;2023-07-08T11:15:30;4.60;;;2.47;;
36355;SDS011;22384;54.302;18.596;2023-07-08T11:17:59;9.20;;;2.33;;
36355;SDS011;22384;54.302;18.596;2023-07-08T11:25:47;4.13;;;2.22;;
36355;SDS011;22384;54.302;18.596;2023-07-08T11:28:15;6.47;;;2.30;;
36355;SDS011;22384;54.302;18.596;2023-07-08T11:30:42;6.47;;;2.30;;
36355;SDS011;22384;54.302;18.596;2023-07-08T11:33:10;7.68;;;2.55;;
36355;SDS011;22384;54.302;18.596;2023-07-08T11:35:39;9.07;;;2.60;;
36355;SDS011;22384;54.302;18.596;2023-07-08T11:38:09;9.87;;;2.30;;
36355;SDS011;22384;54.302;18.596;2023-07-08T11:43:23;4.45;;;1.88;;
36355;SDS011;22384;54.302;18.596;2023-07-08T11:45:50;5.50;;;1.80;;
36355;SDS011;22384;54.302;18.596;2023-07-08T11:48:27;5.68;;;1.73;;
36355;SDS011;22384;54.302;18.596;2023-07-08T11:50:55;5.03;;;1.70;;
36355;SDS011;22384;54.302;18.596;2023-07-08T11:55:56;3.15;;;1.88;;
36355;SDS011;22384;54.302;18.596;2023-07-08T12:00:58;6.80;;;1.75;;
36355;SDS011;22384;54.302;18.596;2023-07-08T12:03:33;5.03;;;2.03;;
36355;SDS011;22384;54.302;18.596;2023-07-08T12:05:59;5.75;;;1.63;;
36355;SDS011;22384;54.302;18.596;2023-07-08T12:08:35;4.22;;;2.10;;
36355;SDS011;22384;54.302;18.596;2023-07-08T12:11:02;4.68;;;1.55;;
36355;SDS011;22384;54.302;18.596;2023-07-08T12:13:29;2.97;;;1.60;;
36355;SDS011;22384;54.302;18.596;2023-07-08T12:15:55;9.07;;;1.65;;
36355;SDS011;22384;54.302;18.596;2023-07-08T12:18:24;2.00;;;1.40;;
36355;SDS011;22384;54.302;18.596;2023-07-08T12:20:54;2.65;;;1.35;;
36355;SDS011;22384;54.302;18.596;2023-07-08T12:23:22;4.13;;;1.70;;
36355;SDS011;22384;54.302;18.596;2023-07-08T12:25:49;4.88;;;1.20;;
36355;SDS011;22384;54.302;18.596;2023-07-08T12:28:15;7.10;;;2.00;;
36355;SDS011;22384;54.302;18.596;2023-07-08T12:30:42;2.40;;;1.40;;
36355;SDS011;22384;54.302;18.596;2023-07-08T12:33:10;2.63;;;1.30;;
36355;SDS011;22384;54.302;18.596;2023-07-08T12:35:37;3.63;;;1.23;;
36355;SDS011;22384;54.302;18.596;2023-07-08T12:40:45;4.32;;;1.33;;
36355;SDS011;22384;54.302;18.596;2023-07-08T12:43:11;3.40;;;1.48;;
36355;SDS011;22384;54.302;18.596;2023-07-08T12:45:37;1.60;;;1.02;;
36355;SDS011;22384;54.302;18.596;2023-07-08T12:48:03;2.25;;;1.25;;
36355;SDS011;22384;54.302;18.596;2023-07-08T12:50:29;6.55;;;1.20;;
36355;SDS011;22384;54.302;18.596;2023-07-08T12:52:55;5.75;;;1.27;;
36355;SDS011;22384;54.302;18.596;2023-07-08T12:55:21;5.63;;;1.25;;
36355;SDS011;22384;54.302;18.596;2023-07-08T12:57:49;1.23;;;1.10;;
36355;SDS011;22384;54.302;18.596;2023-07-08T13:00:18;4.00;;;1.40;;
36355;SDS011;22384;54.302;18.596;2023-07-08T13:02:46;2.33;;;1.00;;
36355;SDS011;22384;54.302;18.596;2023-07-08T13:05:13;1.58;;;0.90;;
36355;SDS011;22384;54.302;18.596;2023-07-08T13:07:40;2.13;;;1.10;;
36355;SDS011;22384;54.302;18.596;2023-07-08T13:10:07;3.55;;;0.98;;
36355;SDS011;22384;54.302;18.596;2023-07-08T13:12:34;2.90;;;1.25;;
36355;SDS011;22384;54.302;18.596;2023-07-08T13:15:03;2.53;;;1.20;;
36355;SDS011;22384;54.302;18.596;2023-07-08T13:17:34;2.78;;;1.10;;
36355;SDS011;22384;54.302;18.596;2023-07-08T13:20:02;1.38;;;0.90;;
36355;SDS011;22384;54.302;18.596;2023-07-08T13:22:36;1.42;;;0.98;;
36355;SDS011;22384;54.302;18.596;2023-07-08T13:49:24;4.15;;;0.98;;
36355;SDS011;22384;54.302;18.596;2023-07-08T13:51:55;8.13;;;1.10;;
36355;SDS011;22384;54.302;18.596;2023-07-08T14:21:26;3.55;;;0.93;;
36355;SDS011;22384;54.302;18.596;2023-07-08T15:21:55;3.10;;;1.10;;
36355;SDS011;22384;54.302;18.596;2023-07-08T15:24:21;2.00;;;0.88;;
36355;SDS011;22384;54.302;18.596;2023-07-08T15:26:49;8.73;;;1.27;;
36355;SDS011;22384;54.302;18.596;2023-07-08T15:29:16;5.05;;;0.93;;
36355;SDS011;22384;54.302;18.596;2023-07-08T15:31:43;4.28;;;1.30;;
36355;SDS011;22384;54.302;18.596;2023-07-08T15:34:20;4.20;;;1.40;;
36355;SDS011;22384;54.302;18.596;2023-07-08T15:36:46;3.83;;;1.05;;
36355;SDS011;22384;54.302;18.596;2023-07-08T15:39:12;2.25;;;0.90;;
36355;SDS011;22384;54.302;18.596;2023-07-08T15:41:38;2.60;;;1.00;;
36355;SDS011;22384;54.302;18.596;2023-07-08T15:44:06;3.83;;;1.00;;
36355;SDS011;22384;54.302;18.596;2023-07-08T15:46:37;2.95;;;1.30;;
36355;SDS011;22384;54.302;18.596;2023-07-08T15:49:23;3.13;;;1.17;;
36355;SDS011;22384;54.302;18.596;2023-07-08T15:51:55;5.03;;;1.27;;
36355;SDS011;22384;54.302;18.596;2023-07-08T15:54:21;0.95;;;0.80;;
36355;SDS011;22384;54.302;18.596;2023-07-08T15:56:51;5.35;;;1.25;;
36355;SDS011;22384;54.302;18.596;2023-07-08T15:59:20;2.10;;;1.30;;
36355;SDS011;22384;54.302;18.596;2023-07-08T16:01:47;5.75;;;1.08;;
36355;SDS011;22384;54.302;18.596;2023-07-08T16:04:20;4.47;;;1.30;;
36355;SDS011;22384;54.302;18.596;2023-07-08T16:06:47;3.65;;;1.25;;
36355;SDS011;22384;54.302;18.596;2023-07-08T16:09:13;5.05;;;1.08;;
36355;SDS011;22384;54.302;18.596;2023-07-08T16:11:39;4.00;;;1.15;;
36355;SDS011;22384;54.302;18.596;2023-07-08T16:14:05;2.42;;;0.90;;
36355;SDS011;22384;54.302;18.596;2023-07-08T16:16:33;4.70;;;1.15;;
36355;SDS011;22384;54.302;18.596;2023-07-08T16:18:59;4.53;;;1.23;;
36355;SDS011;22384;54.302;18.596;2023-07-08T16:21:25;4.22;;;1.42;;
36355;SDS011;22384;54.302;18.596;2023-07-08T16:23:51;1.88;;;0.82;;
36355;SDS011;22384;54.302;18.596;2023-07-08T16:26:18;3.40;;;1.02;;
36355;SDS011;22384;54.302;18.596;2023-07-08T16:28:44;3.53;;;1.55;;
36355;SDS011;22384;54.302;18.596;2023-07-08T16:31:16;3.70;;;1.23;;
36355;SDS011;22384;54.302;18.596;2023-07-08T16:33:43;2.22;;;1.00;;
36355;SDS011;22384;54.302;18.596;2023-07-08T16:36:13;1.90;;;0.98;;
36355;SDS011;22384;54.302;18.596;2023-07-08T16:38:40;1.92;;;1.10;;
36355;SDS011;22384;54.302;18.596;2023-07-08T16:41:09;2.58;;;1.20;;
36355;SDS011;22384;54.302;18.596;2023-07-08T16:43:37;2.78;;;1.20;;
36355;SDS011;22384;54.302;18.596;2023-07-08T16:46:03;3.60;;;1.38;;
36355;SDS011;22384;54.302;18.596;2023-07-08T16:48:29;2.97;;;1.08;;
36355;SDS011;22384;54.302;18.596;2023-07-08T16:50:55;2.72;;;1.52;;
36355;SDS011;22384;54.302;18.596;2023-07-08T16:53:21;2.00;;;0.98;;
36355;SDS011;22384;54.302;18.596;2023-07-08T16:55:48;4.32;;;1.05;;
36355;SDS011;22384;54.302;18.596;2023-07-08T16:58:14;3.03;;;1.10;;
36355;SDS011;22384;54.302;18.596;2023-07-08T17:00:41;4.32;;;1.45;;
36355;SDS011;22384;54.302;18.596;2023-07-08T17:03:08;6.55;;;1.20;;
36355;SDS011;22384;54.302;18.596;2023-07-08T17:05:35;3.53;;;1.48;;
36355;SDS011;22384;54.302;18.596;2023-07-08T17:08:01;4.53;;;1.20;;
36355;SDS011;22384;54.302;18.596;2023-07-08T17:10:28;7.55;;;1.77;;
36355;SDS011;22384;54.302;18.596;2023-07-08T17:12:54;2.67;;;1.00;;
36355;SDS011;22384;54.302;18.596;2023-07-08T17:15:22;3.33;;;1.33;;
36355;SDS011;22384;54.302;18.596;2023-07-08T17:17:52;2.08;;;1.23;;
36355;SDS011;22384;54.302;18.596;2023-07-08T17:20:25;3.33;;;1.73;;
36355;SDS011;22384;54.302;18.596;2023-07-08T17:22:52;2.45;;;1.48;;
36355;SDS011;22384;54.302;18.596;2023-07-08T17:25:19;3.40;;;1.38;;
36355;SDS011;22384;54.302;18.596;2023-07-08T17:27:46;3.25;;;1.10;;
36355;SDS011;22384;54.302;18.596;2023-07-08T17:30:13;4.85;;;1.27;;
36355;SDS011;22384;54.302;18.596;2023-07-08T17:32:46;3.22;;;1.30;;
36355;SDS011;22384;54.302;18.596;2023-07-08T17:35:15;2.90;;;1.15;;
36355;SDS011;22384;54.302;18.596;2023-07-08T17:37:42;1.63;;;1.15;;
36355;SDS011;22384;54.302;18.596;2023-07-08T17:40:12;3.22;;;1.10;;
36355;SDS011;22384;54.302;18.596;2023-07-08T17:42:38;3.83;;;1.63;;
36355;SDS011;22384;54.302;18.596;2023-07-08T17:45:05;1.70;;;1.17;;
36355;SDS011;22384;54.302;18.596;2023-07-08T17:47:31;3.38;;;1.13;;
36355;SDS011;22384;54.302;18.596;2023-07-08T17:49:57;2.65;;;1.20;;
36355;SDS011;22384;54.302;18.596;2023-07-08T18:01:40;8.45;;;1.40;;
36355;SDS011;22384;54.302;18.596;2023-07-08T18:04:06;1.75;;;1.23;;
36355;SDS011;22384;54.302;18.596;2023-07-08T18:06:32;6.22;;;1.50;;
36355;SDS011;22384;54.302;18.596;2023-07-08T18:08:58;4.72;;;1.50;;
36355;SDS011;22384;54.302;18.596;2023-07-08T18:11:24;3.00;;;1.23;;
36355;SDS011;22384;54.302;18.596;2023-07-08T18:13:52;4.65;;;1.58;;
36355;SDS011;22384;54.302;18.596;2023-07-08T18:16:19;2.38;;;1.33;;
36355;SDS011;22384;54.302;18.596;2023-07-08T18:18:45;2.95;;;1.67;;
36355;SDS011;22384;54.302;18.596;2023-07-08T18:21:12;5.60;;;1.52;;
36355;SDS011;22384;54.302;18.596;2023-07-08T18:23:39;3.83;;;1.50;;
36355;SDS011;22384;54.302;18.596;2023-07-08T18:26:07;6.00;;;1.88;;
36355;SDS011;22384;54.302;18.596;2023-07-08T18:28:33;6.47;;;1.27;;
36355;SDS011;22384;54.302;18.596;2023-07-08T18:30:59;3.75;;;1.48;;
36355;SDS011;22384;54.302;18.596;2023-07-08T18:33:25;5.97;;;1.77;;
36355;SDS011;22384;54.302;18.596;2023-07-08T18:35:52;4.50;;;1.90;;
36355;SDS011;22384;54.302;18.596;2023-07-08T18:38:18;4.05;;;1.80;;
36355;SDS011;22384;54.302;18.596;2023-07-08T18:40:44;5.07;;;1.85;;
36355;SDS011;22384;54.302;18.596;2023-07-08T18:45:37;2.60;;;1.60;;
36355;SDS011;22384;54.302;18.596;2023-07-08T18:48:03;2.58;;;1.50;;
36355;SDS011;22384;54.302;18.596;2023-07-08T18:50:29;4.97;;;1.80;;